FDX1514 KMEM-KEWR
Flight info
| Callsign | FDX1514 |
|---|---|
| Flight time | 1h 36m |
| Altitude | 33000 |
| Route | GOETZ7 DIYAB HITMN Q34 GVE PHLBO4 |
| Aircraft | MD11/H-SDE1E2E3FGHIJ2J3J4J5M1RWXY/LB1D1 |
Departure
| Time | 2026-05-07 16:29 |
|---|---|
| Airport | Memphis International Airport (KMEM) |
Arrival
| Time | 2026-05-07 18:05 |
|---|---|
| Airport | Newark Liberty International Airport (KEWR) |
| Time | Latitude | Longitude | Altitude | Speed | Heading |
|---|---|---|---|---|---|
| 2026-05-07 15:53 | 35.06023 | -89.97193 | 334 ft | 0 kts | 1° |
| 2026-05-07 16:18 | 35.06005 | -89.97193 | 332 ft | 4 kts | 1° |
| 2026-05-07 16:18 | 35.05978 | -89.97194 | 332 ft | 4 kts | 1° |
| 2026-05-07 16:18 | 35.05956 | -89.97195 | 333 ft | 3 kts | 360° |
| 2026-05-07 16:18 | 35.05940 | -89.97194 | 332 ft | 4 kts | 307° |
| 2026-05-07 16:19 | 35.05933 | -89.97172 | 332 ft | 3 kts | 272° |
| 2026-05-07 16:19 | 35.05932 | -89.97143 | 333 ft | 1 kts | 272° |
| 2026-05-07 16:19 | 35.05932 | -89.97142 | 333 ft | 0 kts | 272° |
| 2026-05-07 16:23 | 35.05932 | -89.97145 | 333 ft | 2 kts | 272° |
| 2026-05-07 16:23 | 35.05933 | -89.97183 | 332 ft | 7 kts | 272° |
| 2026-05-07 16:23 | 35.05936 | -89.97276 | 334 ft | 14 kts | 272° |
| 2026-05-07 16:24 | 35.05940 | -89.97411 | 336 ft | 16 kts | 272° |
| 2026-05-07 16:24 | 35.05954 | -89.97541 | 334 ft | 16 kts | 284° |
| 2026-05-07 16:24 | 35.05986 | -89.97690 | 334 ft | 21 kts | 285° |
| 2026-05-07 16:24 | 35.06009 | -89.97877 | 336 ft | 22 kts | 272° |
| 2026-05-07 16:25 | 35.06013 | -89.98057 | 336 ft | 20 kts | 272° |
| 2026-05-07 16:25 | 35.06018 | -89.98224 | 335 ft | 19 kts | 272° |
| 2026-05-07 16:25 | 35.06023 | -89.98375 | 334 ft | 17 kts | 272° |
| 2026-05-07 16:25 | 35.06024 | -89.98462 | 334 ft | 7 kts | 270° |
| 2026-05-07 16:26 | 35.06010 | -89.98502 | 335 ft | 3 kts | 223° |
| 2026-05-07 16:26 | 35.05992 | -89.98509 | 332 ft | 3 kts | 192° |
| 2026-05-07 16:26 | 35.05974 | -89.98511 | 334 ft | 5 kts | 185° |
| 2026-05-07 16:26 | 35.05920 | -89.98510 | 335 ft | 9 kts | 178° |
| 2026-05-07 16:27 | 35.05867 | -89.98500 | 331 ft | 2 kts | 150° |
| 2026-05-07 16:27 | 35.05865 | -89.98492 | 334 ft | 1 kts | 118° |
| 2026-05-07 16:27 | 35.05859 | -89.98461 | 334 ft | 6 kts | 98° |
| 2026-05-07 16:27 | 35.05859 | -89.98451 | 333 ft | 0 kts | 92° |
| 2026-05-07 16:28 | 35.05857 | -89.98409 | 337 ft | 16 kts | 92° |
| 2026-05-07 16:28 | 35.05844 | -89.97896 | 339 ft | 107 kts | 92° |
| 2026-05-07 16:29 | 35.05815 | -89.96651 | 476 ft | 170 kts | 90° |
| 2026-05-07 16:29 | 35.05760 | -89.95216 | 1571 ft | 174 kts | 90° |
| 2026-05-07 16:29 | 35.05658 | -89.93742 | 2631 ft | 178 kts | 90° |
| 2026-05-07 16:29 | 35.05633 | -89.92210 | 3410 ft | 184 kts | 75° |
| 2026-05-07 16:30 | 35.06001 | -89.90518 | 3623 ft | 229 kts | 69° |
| 2026-05-07 16:30 | 35.06550 | -89.88557 | 4154 ft | 251 kts | 68° |
| 2026-05-07 16:30 | 35.07111 | -89.86498 | 5113 ft | 260 kts | 69° |
| 2026-05-07 16:30 | 35.07668 | -89.84346 | 5995 ft | 272 kts | 70° |
| 2026-05-07 16:31 | 35.08227 | -89.82094 | 6809 ft | 282 kts | 71° |
| 2026-05-07 16:31 | 35.08783 | -89.79782 | 7541 ft | 293 kts | 71° |
| 2026-05-07 16:31 | 35.09352 | -89.77351 | 8299 ft | 303 kts | 71° |
| 2026-05-07 16:31 | 35.09942 | -89.74794 | 9056 ft | 314 kts | 71° |
| 2026-05-07 16:32 | 35.10536 | -89.72187 | 9783 ft | 324 kts | 71° |
| 2026-05-07 16:32 | 35.11149 | -89.69480 | 10304 ft | 342 kts | 71° |
| 2026-05-07 16:32 | 35.11799 | -89.66614 | 10433 ft | 372 kts | 71° |
| 2026-05-07 16:32 | 35.12512 | -89.63450 | 10597 ft | 400 kts | 72° |
| 2026-05-07 16:33 | 35.13252 | -89.60132 | 11279 ft | 409 kts | 72° |
| 2026-05-07 16:33 | 35.14012 | -89.56698 | 12019 ft | 416 kts | 72° |
| 2026-05-07 16:33 | 35.14760 | -89.53307 | 12781 ft | 423 kts | 73° |
| 2026-05-07 16:33 | 35.15533 | -89.49809 | 13509 ft | 430 kts | 73° |
| 2026-05-07 16:34 | 35.16317 | -89.46257 | 14188 ft | 436 kts | 73° |
| 2026-05-07 16:34 | 35.17110 | -89.42665 | 14793 ft | 443 kts | 73° |
| 2026-05-07 16:34 | 35.17919 | -89.38999 | 15375 ft | 450 kts | 73° |
| 2026-05-07 16:34 | 35.18740 | -89.35275 | 15939 ft | 457 kts | 73° |
| 2026-05-07 16:35 | 35.19572 | -89.31494 | 16494 ft | 464 kts | 73° |
| 2026-05-07 16:35 | 35.20414 | -89.27658 | 17057 ft | 470 kts | 73° |
| 2026-05-07 16:35 | 35.21271 | -89.23770 | 17606 ft | 477 kts | 73° |
| 2026-05-07 16:35 | 35.22197 | -89.19839 | 18073 ft | 485 kts | 72° |
| 2026-05-07 16:36 | 35.23203 | -89.15881 | 18546 ft | 491 kts | 69° |
| 2026-05-07 16:36 | 35.24429 | -89.11966 | 19029 ft | 494 kts | 64° |
| 2026-05-07 16:36 | 35.25824 | -89.08128 | 19656 ft | 494 kts | 62° |
| 2026-05-07 16:36 | 35.27296 | -89.04312 | 20095 ft | 499 kts | 61° |
| 2026-05-07 16:37 | 35.28804 | -89.00461 | 20523 ft | 504 kts | 61° |
| 2026-05-07 16:37 | 35.30321 | -88.96566 | 20939 ft | 510 kts | 61° |
| 2026-05-07 16:37 | 35.31839 | -88.92620 | 21361 ft | 515 kts | 62° |
| 2026-05-07 16:37 | 35.33360 | -88.88620 | 21795 ft | 521 kts | 62° |
| 2026-05-07 16:38 | 35.34887 | -88.84575 | 22248 ft | 526 kts | 62° |
| 2026-05-07 16:38 | 35.36426 | -88.80477 | 22648 ft | 533 kts | 62° |
| 2026-05-07 16:38 | 35.37978 | -88.76335 | 23098 ft | 538 kts | 63° |
| 2026-05-07 16:38 | 35.39545 | -88.72147 | 23540 ft | 543 kts | 62° |
| 2026-05-07 16:39 | 35.41126 | -88.67920 | 23952 ft | 548 kts | 62° |
| 2026-05-07 16:39 | 35.42720 | -88.63654 | 24372 ft | 552 kts | 62° |
| 2026-05-07 16:39 | 35.44324 | -88.59356 | 24792 ft | 557 kts | 62° |
| 2026-05-07 16:39 | 35.45942 | -88.55018 | 25231 ft | 561 kts | 62° |
| 2026-05-07 16:40 | 35.47569 | -88.50648 | 25666 ft | 565 kts | 62° |
| 2026-05-07 16:40 | 35.49208 | -88.46243 | 26126 ft | 570 kts | 62° |
| 2026-05-07 16:40 | 35.50861 | -88.41791 | 26522 ft | 576 kts | 62° |
| 2026-05-07 16:40 | 35.52525 | -88.37305 | 26937 ft | 580 kts | 62° |
| 2026-05-07 16:41 | 35.54203 | -88.32773 | 27332 ft | 585 kts | 62° |
| 2026-05-07 16:41 | 35.55883 | -88.28229 | 27748 ft | 589 kts | 62° |
| 2026-05-07 16:41 | 35.57582 | -88.23626 | 28158 ft | 594 kts | 62° |
| 2026-05-07 16:41 | 35.59273 | -88.19008 | 28559 ft | 598 kts | 63° |
| 2026-05-07 16:42 | 35.60981 | -88.14323 | 28941 ft | 603 kts | 62° |
| 2026-05-07 16:42 | 35.62700 | -88.09611 | 29321 ft | 607 kts | 62° |
| 2026-05-07 16:42 | 35.64433 | -88.04868 | 29707 ft | 611 kts | 62° |
| 2026-05-07 16:42 | 35.66182 | -88.00086 | 30069 ft | 615 kts | 62° |
| 2026-05-07 16:43 | 35.67906 | -87.95374 | 30492 ft | 615 kts | 62° |
| 2026-05-07 16:43 | 35.69660 | -87.90572 | 30946 ft | 615 kts | 62° |
| 2026-05-07 16:43 | 35.71411 | -87.85770 | 31373 ft | 615 kts | 62° |
| 2026-05-07 16:43 | 35.73160 | -87.80970 | 31813 ft | 614 kts | 62° |
| 2026-05-07 16:44 | 35.74906 | -87.76171 | 32195 ft | 616 kts | 62° |
| 2026-05-07 16:44 | 35.76655 | -87.71355 | 32592 ft | 616 kts | 62° |
| 2026-05-07 16:44 | 35.78402 | -87.66535 | 32952 ft | 617 kts | 62° |
| 2026-05-07 16:44 | 35.80148 | -87.61712 | 33340 ft | 616 kts | 62° |
| 2026-05-07 16:45 | 35.81864 | -87.56963 | 33740 ft | 615 kts | 62° |
| 2026-05-07 16:45 | 35.83599 | -87.52152 | 34136 ft | 614 kts | 62° |
| 2026-05-07 16:45 | 35.85329 | -87.47351 | 34473 ft | 613 kts | 62° |
| 2026-05-07 16:45 | 35.87056 | -87.42551 | 34815 ft | 611 kts | 62° |
| 2026-05-07 16:46 | 35.88779 | -87.37755 | 35018 ft | 613 kts | 62° |
| 2026-05-07 16:46 | 35.92225 | -87.28132 | 35082 ft | 613 kts | 63° |
| 2026-05-07 16:47 | 35.95640 | -87.18486 | 35085 ft | 614 kts | 63° |
| 2026-05-07 16:47 | 35.99060 | -87.08835 | 35081 ft | 614 kts | 63° |
| 2026-05-07 16:48 | 36.02485 | -86.99186 | 35082 ft | 614 kts | 63° |
| 2026-05-07 16:48 | 36.05906 | -86.89527 | 35072 ft | 613 kts | 63° |
| 2026-05-07 16:49 | 36.09318 | -86.79859 | 35099 ft | 613 kts | 63° |
| 2026-05-07 16:49 | 36.12721 | -86.70184 | 35101 ft | 613 kts | 63° |
| 2026-05-07 16:50 | 36.16115 | -86.60504 | 35101 ft | 613 kts | 63° |
| 2026-05-07 16:50 | 36.19503 | -86.50812 | 35103 ft | 614 kts | 64° |
| 2026-05-07 16:51 | 36.22814 | -86.41041 | 35115 ft | 616 kts | 65° |
| 2026-05-07 16:51 | 36.25966 | -86.31168 | 35100 ft | 617 kts | 66° |
| 2026-05-07 16:52 | 36.29097 | -86.21273 | 35071 ft | 617 kts | 65° |
| 2026-05-07 16:52 | 36.32240 | -86.11388 | 35067 ft | 615 kts | 64° |
| 2026-05-07 16:53 | 36.35380 | -86.01525 | 35069 ft | 615 kts | 64° |
| 2026-05-07 16:53 | 36.38511 | -85.91657 | 35070 ft | 615 kts | 65° |
| 2026-05-07 16:54 | 36.41632 | -85.81780 | 35056 ft | 615 kts | 64° |
| 2026-05-07 16:54 | 36.44751 | -85.71874 | 35063 ft | 617 kts | 64° |
| 2026-05-07 16:55 | 36.47870 | -85.61934 | 35053 ft | 618 kts | 65° |
| 2026-05-07 16:55 | 36.50984 | -85.51974 | 35048 ft | 618 kts | 65° |
| 2026-05-07 16:56 | 36.54044 | -85.42062 | 35024 ft | 618 kts | 65° |
| 2026-05-07 16:56 | 36.58654 | -85.27113 | 35053 ft | 617 kts | 65° |
| 2026-05-07 16:57 | 36.61735 | -85.17139 | 35057 ft | 617 kts | 65° |
| 2026-05-07 16:57 | 36.64808 | -85.07161 | 35134 ft | 618 kts | 65° |
| 2026-05-07 16:58 | 36.67888 | -84.97157 | 35075 ft | 619 kts | 65° |
| 2026-05-07 16:58 | 36.70966 | -84.87129 | 35083 ft | 619 kts | 65° |
| 2026-05-07 16:59 | 36.74032 | -84.77102 | 35085 ft | 620 kts | 65° |
| 2026-05-07 16:59 | 36.77096 | -84.67056 | 35078 ft | 620 kts | 65° |
| 2026-05-07 17:00 | 36.80147 | -84.56995 | 35067 ft | 620 kts | 66° |
| 2026-05-07 17:00 | 36.83170 | -84.46926 | 35042 ft | 619 kts | 66° |
| 2026-05-07 17:01 | 36.86194 | -84.36858 | 35120 ft | 620 kts | 66° |
| 2026-05-07 17:01 | 36.89226 | -84.26763 | 35047 ft | 621 kts | 66° |
| 2026-05-07 17:02 | 36.92252 | -84.16658 | 35050 ft | 622 kts | 66° |
| 2026-05-07 17:02 | 36.95271 | -84.06530 | 35041 ft | 622 kts | 66° |
| 2026-05-07 17:03 | 36.98268 | -83.96385 | 35040 ft | 622 kts | 66° |
| 2026-05-07 17:03 | 37.01257 | -83.86246 | 35023 ft | 621 kts | 66° |
| 2026-05-07 17:04 | 37.04225 | -83.76176 | 35023 ft | 620 kts | 66° |
| 2026-05-07 17:04 | 37.07205 | -83.66038 | 35081 ft | 621 kts | 67° |
| 2026-05-07 17:05 | 37.10184 | -83.55868 | 35004 ft | 623 kts | 67° |
| 2026-05-07 17:05 | 37.13154 | -83.45684 | 35003 ft | 622 kts | 67° |
| 2026-05-07 17:06 | 37.16103 | -83.35532 | 35009 ft | 621 kts | 67° |
| 2026-05-07 17:06 | 37.19038 | -83.25390 | 35008 ft | 622 kts | 67° |
| 2026-05-07 17:07 | 37.21983 | -83.15183 | 34971 ft | 623 kts | 68° |
| 2026-05-07 17:07 | 37.24910 | -83.04956 | 35001 ft | 622 kts | 68° |
| 2026-05-07 17:08 | 37.27801 | -82.94732 | 35042 ft | 622 kts | 68° |
| 2026-05-07 17:08 | 37.30707 | -82.84492 | 35005 ft | 623 kts | 68° |
| 2026-05-07 17:09 | 37.33603 | -82.74305 | 35009 ft | 622 kts | 68° |
| 2026-05-07 17:09 | 37.36503 | -82.64064 | 35012 ft | 622 kts | 68° |
| 2026-05-07 17:10 | 37.39391 | -82.53816 | 35026 ft | 622 kts | 68° |
| 2026-05-07 17:10 | 37.42267 | -82.43570 | 34994 ft | 621 kts | 68° |
| 2026-05-07 17:11 | 37.45132 | -82.33332 | 34990 ft | 621 kts | 69° |
| 2026-05-07 17:11 | 37.47992 | -82.23069 | 35008 ft | 622 kts | 69° |
| 2026-05-07 17:12 | 37.50840 | -82.12788 | 35001 ft | 622 kts | 69° |
| 2026-05-07 17:12 | 37.53657 | -82.02491 | 34997 ft | 622 kts | 69° |
| 2026-05-07 17:13 | 37.56482 | -81.92182 | 35000 ft | 622 kts | 69° |
| 2026-05-07 17:13 | 37.59308 | -81.81873 | 35005 ft | 622 kts | 69° |
| 2026-05-07 17:14 | 37.62110 | -81.71554 | 35001 ft | 622 kts | 69° |
| 2026-05-07 17:14 | 37.64903 | -81.61226 | 34994 ft | 621 kts | 70° |
| 2026-05-07 17:15 | 37.67217 | -81.52651 | 35019 ft | 622 kts | 70° |
| 2026-05-07 17:15 | 37.69997 | -81.42318 | 35004 ft | 622 kts | 70° |
| 2026-05-07 17:16 | 37.72766 | -81.31981 | 35000 ft | 621 kts | 70° |
| 2026-05-07 17:16 | 37.75525 | -81.21642 | 34990 ft | 620 kts | 70° |
| 2026-05-07 17:17 | 37.78107 | -81.11246 | 34996 ft | 621 kts | 78° |
| 2026-05-07 17:17 | 37.79257 | -81.00480 | 35001 ft | 617 kts | 89° |
| 2026-05-07 17:18 | 37.79743 | -80.89659 | 34971 ft | 616 kts | 90° |
| 2026-05-07 17:18 | 37.80297 | -80.78848 | 35002 ft | 617 kts | 89° |
| 2026-05-07 17:19 | 37.80984 | -80.68038 | 34976 ft | 617 kts | 88° |
| 2026-05-07 17:19 | 37.81701 | -80.57215 | 35003 ft | 618 kts | 88° |
| 2026-05-07 17:20 | 37.82396 | -80.46384 | 34970 ft | 617 kts | 89° |
| 2026-05-07 17:20 | 37.83053 | -80.35564 | 34966 ft | 617 kts | 89° |
| 2026-05-07 17:21 | 37.83708 | -80.24744 | 34970 ft | 617 kts | 89° |
| 2026-05-07 17:21 | 37.84365 | -80.13919 | 34955 ft | 617 kts | 89° |
| 2026-05-07 17:22 | 37.85015 | -80.03103 | 34941 ft | 617 kts | 89° |
| 2026-05-07 17:22 | 37.85653 | -79.92285 | 34934 ft | 616 kts | 89° |
| 2026-05-07 17:23 | 37.86281 | -79.81467 | 34933 ft | 616 kts | 89° |
| 2026-05-07 17:23 | 37.86841 | -79.70726 | 34937 ft | 616 kts | 91° |
| 2026-05-07 17:24 | 37.87044 | -79.65314 | 35088 ft | 615 kts | 91° |
| 2026-05-07 17:24 | 37.87220 | -79.59842 | 35117 ft | 614 kts | 91° |
| 2026-05-07 17:24 | 37.87549 | -79.49102 | 35118 ft | 615 kts | 91° |
| 2026-05-07 17:25 | 37.87894 | -79.38299 | 35099 ft | 614 kts | 91° |
| 2026-05-07 17:25 | 37.88611 | -79.27524 | 35068 ft | 615 kts | 85° |
| 2026-05-07 17:26 | 37.89888 | -79.16828 | 35013 ft | 616 kts | 83° |
| 2026-05-07 17:26 | 37.91236 | -79.06173 | 34965 ft | 616 kts | 83° |
| 2026-05-07 17:27 | 37.92493 | -78.95549 | 34956 ft | 612 kts | 84° |
| 2026-05-07 17:27 | 37.93696 | -78.84889 | 34954 ft | 611 kts | 84° |
| 2026-05-07 17:28 | 37.94886 | -78.74274 | 34958 ft | 611 kts | 84° |
| 2026-05-07 17:28 | 37.96080 | -78.63623 | 34944 ft | 609 kts | 84° |
| 2026-05-07 17:29 | 37.97263 | -78.53014 | 34956 ft | 608 kts | 84° |
| 2026-05-07 17:29 | 37.98435 | -78.42407 | 34956 ft | 607 kts | 84° |
| 2026-05-07 17:30 | 37.99595 | -78.31797 | 34958 ft | 608 kts | 84° |
| 2026-05-07 17:30 | 38.00719 | -78.21180 | 34956 ft | 608 kts | 84° |
| 2026-05-07 17:31 | 38.02923 | -78.10861 | 34962 ft | 607 kts | 63° |
| 2026-05-07 17:31 | 38.04896 | -78.06151 | 35015 ft | 602 kts | 52° |
| 2026-05-07 17:31 | 38.07291 | -78.01803 | 34980 ft | 600 kts | 47° |
| 2026-05-07 17:32 | 38.12297 | -77.93320 | 34941 ft | 601 kts | 49° |
| 2026-05-07 17:32 | 38.16969 | -77.84500 | 34957 ft | 603 kts | 53° |
| 2026-05-07 17:33 | 38.21401 | -77.75431 | 34962 ft | 604 kts | 54° |
| 2026-05-07 17:33 | 38.25793 | -77.66323 | 34980 ft | 606 kts | 54° |
| 2026-05-07 17:34 | 38.30231 | -77.57185 | 34926 ft | 607 kts | 54° |
| 2026-05-07 17:34 | 38.34641 | -77.48121 | 34950 ft | 606 kts | 54° |
| 2026-05-07 17:35 | 38.39076 | -77.38983 | 34951 ft | 606 kts | 54° |
| 2026-05-07 17:35 | 38.43502 | -77.29834 | 35023 ft | 607 kts | 54° |
| 2026-05-07 17:36 | 38.47921 | -77.20638 | 34957 ft | 607 kts | 55° |
| 2026-05-07 17:36 | 38.52311 | -77.11438 | 34973 ft | 607 kts | 55° |
| 2026-05-07 17:37 | 38.56694 | -77.02275 | 34967 ft | 607 kts | 55° |
| 2026-05-07 17:37 | 38.61094 | -76.93076 | 34965 ft | 607 kts | 55° |
| 2026-05-07 17:38 | 38.65500 | -76.83843 | 34947 ft | 609 kts | 55° |
| 2026-05-07 17:38 | 38.69903 | -76.74581 | 34954 ft | 609 kts | 55° |
| 2026-05-07 17:39 | 38.74423 | -76.65494 | 34952 ft | 604 kts | 46° |
| 2026-05-07 17:39 | 38.77191 | -76.61527 | 34956 ft | 593 kts | 35° |
| 2026-05-07 17:39 | 38.80324 | -76.58173 | 35017 ft | 582 kts | 27° |
| 2026-05-07 17:40 | 38.86952 | -76.52333 | 34958 ft | 570 kts | 24° |
| 2026-05-07 17:40 | 38.90158 | -76.49476 | 34903 ft | 557 kts | 25° |
| 2026-05-07 17:40 | 38.93302 | -76.46559 | 34644 ft | 557 kts | 26° |
| 2026-05-07 17:41 | 38.96418 | -76.43570 | 34126 ft | 559 kts | 27° |
| 2026-05-07 17:41 | 38.99496 | -76.40548 | 33323 ft | 560 kts | 28° |
| 2026-05-07 17:41 | 39.02552 | -76.37501 | 32613 ft | 562 kts | 29° |
| 2026-05-07 17:41 | 39.05592 | -76.34277 | 31834 ft | 569 kts | 32° |
| 2026-05-07 17:42 | 39.08570 | -76.30892 | 31035 ft | 573 kts | 35° |
| 2026-05-07 17:42 | 39.11514 | -76.27419 | 30254 ft | 575 kts | 36° |
| 2026-05-07 17:42 | 39.14446 | -76.23915 | 29399 ft | 576 kts | 36° |
| 2026-05-07 17:42 | 39.17383 | -76.20407 | 28557 ft | 576 kts | 36° |
| 2026-05-07 17:43 | 39.20322 | -76.16913 | 28105 ft | 574 kts | 36° |
| 2026-05-07 17:43 | 39.23275 | -76.13426 | 27669 ft | 576 kts | 36° |
| 2026-05-07 17:43 | 39.26228 | -76.09949 | 27288 ft | 576 kts | 36° |
| 2026-05-07 17:43 | 39.29174 | -76.06483 | 27069 ft | 575 kts | 36° |
| 2026-05-07 17:44 | 39.32135 | -76.03001 | 26975 ft | 575 kts | 36° |
| 2026-05-07 17:44 | 39.35091 | -75.99524 | 26918 ft | 575 kts | 36° |
| 2026-05-07 17:44 | 39.38048 | -75.96045 | 26842 ft | 575 kts | 36° |
| 2026-05-07 17:44 | 39.41006 | -75.92559 | 26846 ft | 575 kts | 36° |
| 2026-05-07 17:45 | 39.43925 | -75.89116 | 26785 ft | 576 kts | 36° |
| 2026-05-07 17:45 | 39.46883 | -75.85622 | 26724 ft | 576 kts | 36° |
| 2026-05-07 17:45 | 39.49839 | -75.82126 | 26660 ft | 575 kts | 36° |
| 2026-05-07 17:45 | 39.52790 | -75.78632 | 26600 ft | 575 kts | 36° |
| 2026-05-07 17:46 | 39.55734 | -75.75141 | 26490 ft | 573 kts | 37° |
| 2026-05-07 17:46 | 39.58644 | -75.71687 | 25899 ft | 571 kts | 37° |
| 2026-05-07 17:46 | 39.61545 | -75.68233 | 25174 ft | 565 kts | 37° |
| 2026-05-07 17:46 | 39.64400 | -75.64831 | 24408 ft | 558 kts | 37° |
| 2026-05-07 17:47 | 39.67240 | -75.61440 | 23657 ft | 551 kts | 37° |
| 2026-05-07 17:47 | 39.70030 | -75.58086 | 22777 ft | 542 kts | 38° |
| 2026-05-07 17:47 | 39.72762 | -75.54787 | 21938 ft | 530 kts | 38° |
| 2026-05-07 17:47 | 39.75443 | -75.51546 | 21147 ft | 521 kts | 38° |
| 2026-05-07 17:48 | 39.78070 | -75.48371 | 20397 ft | 511 kts | 38° |
| 2026-05-07 17:48 | 39.80646 | -75.45258 | 19659 ft | 501 kts | 38° |
| 2026-05-07 17:48 | 39.83172 | -75.42207 | 18904 ft | 491 kts | 38° |
| 2026-05-07 17:48 | 39.85661 | -75.39201 | 18189 ft | 486 kts | 37° |
| 2026-05-07 17:49 | 39.88117 | -75.36232 | 17412 ft | 478 kts | 38° |
| 2026-05-07 17:49 | 39.90530 | -75.33313 | 16691 ft | 469 kts | 38° |
| 2026-05-07 17:49 | 39.92897 | -75.30445 | 15992 ft | 461 kts | 38° |
| 2026-05-07 17:49 | 39.95221 | -75.27625 | 15354 ft | 452 kts | 39° |
| 2026-05-07 17:50 | 39.97487 | -75.24868 | 14782 ft | 446 kts | 39° |
| 2026-05-07 17:50 | 39.99736 | -75.22126 | 14163 ft | 440 kts | 39° |
| 2026-05-07 17:50 | 40.01957 | -75.19416 | 13510 ft | 434 kts | 39° |
| 2026-05-07 17:50 | 40.04146 | -75.16745 | 12847 ft | 428 kts | 39° |
| 2026-05-07 17:51 | 40.06308 | -75.14107 | 12302 ft | 422 kts | 39° |
| 2026-05-07 17:51 | 40.08444 | -75.11500 | 11937 ft | 419 kts | 39° |
| 2026-05-07 17:51 | 40.10564 | -75.08911 | 11560 ft | 415 kts | 39° |
| 2026-05-07 17:51 | 40.12656 | -75.06350 | 11208 ft | 403 kts | 39° |
| 2026-05-07 17:52 | 40.14631 | -75.03910 | 11073 ft | 382 kts | 39° |
| 2026-05-07 17:52 | 40.16524 | -75.01571 | 10929 ft | 368 kts | 38° |
| 2026-05-07 17:52 | 40.18358 | -74.99308 | 10731 ft | 357 kts | 38° |
| 2026-05-07 17:52 | 40.20138 | -74.97115 | 10522 ft | 347 kts | 38° |
| 2026-05-07 17:53 | 40.21891 | -74.94958 | 10041 ft | 347 kts | 38° |
| 2026-05-07 17:53 | 40.23644 | -74.92807 | 9401 ft | 352 kts | 38° |
| 2026-05-07 17:53 | 40.25424 | -74.90589 | 8986 ft | 347 kts | 40° |
| 2026-05-07 17:53 | 40.27094 | -74.88348 | 8605 ft | 341 kts | 42° |
| 2026-05-07 17:54 | 40.28703 | -74.86101 | 8228 ft | 335 kts | 43° |
| 2026-05-07 17:54 | 40.30259 | -74.83903 | 8079 ft | 321 kts | 43° |
| 2026-05-07 17:54 | 40.31715 | -74.81837 | 8029 ft | 306 kts | 42° |
| 2026-05-07 17:54 | 40.33144 | -74.79813 | 8018 ft | 301 kts | 42° |
| 2026-05-07 17:55 | 40.34584 | -74.77780 | 8029 ft | 299 kts | 41° |
| 2026-05-07 17:55 | 40.35976 | -74.75816 | 8019 ft | 298 kts | 41° |
| 2026-05-07 17:55 | 40.37384 | -74.73830 | 8015 ft | 297 kts | 41° |
| 2026-05-07 17:55 | 40.38780 | -74.71861 | 8013 ft | 297 kts | 42° |
| 2026-05-07 17:56 | 40.40185 | -74.69876 | 8012 ft | 297 kts | 42° |
| 2026-05-07 17:56 | 40.41572 | -74.67885 | 8002 ft | 298 kts | 46° |
| 2026-05-07 17:56 | 40.42619 | -74.65531 | 7988 ft | 304 kts | 64° |
| 2026-05-07 17:56 | 40.43348 | -74.62917 | 7922 ft | 306 kts | 69° |
| 2026-05-07 17:57 | 40.43977 | -74.60269 | 7864 ft | 305 kts | 70° |
| 2026-05-07 17:57 | 40.44393 | -74.58459 | 7637 ft | 309 kts | 70° |
| 2026-05-07 17:57 | 40.45211 | -74.54888 | 7005 ft | 305 kts | 70° |
| 2026-05-07 17:57 | 40.45815 | -74.52266 | 6523 ft | 296 kts | 69° |
| 2026-05-07 17:58 | 40.46404 | -74.49722 | 6063 ft | 287 kts | 69° |
| 2026-05-07 17:58 | 40.46978 | -74.47262 | 5610 ft | 277 kts | 70° |
| 2026-05-07 17:58 | 40.47521 | -74.44941 | 5236 ft | 265 kts | 70° |
| 2026-05-07 17:58 | 40.48046 | -74.42694 | 4894 ft | 247 kts | 70° |
| 2026-05-07 17:59 | 40.48528 | -74.40633 | 4552 ft | 228 kts | 71° |
| 2026-05-07 17:59 | 40.48969 | -74.38742 | 4209 ft | 204 kts | 71° |
| 2026-05-07 17:59 | 40.49376 | -74.37000 | 3949 ft | 198 kts | 70° |
| 2026-05-07 17:59 | 40.49781 | -74.35275 | 3666 ft | 197 kts | 69° |
| 2026-05-07 18:00 | 40.50177 | -74.33568 | 3313 ft | 194 kts | 71° |
| 2026-05-07 18:00 | 40.50584 | -74.31871 | 3092 ft | 195 kts | 71° |
| 2026-05-07 18:00 | 40.50985 | -74.30183 | 2858 ft | 192 kts | 68° |
| 2026-05-07 18:00 | 40.51571 | -74.28607 | 2796 ft | 190 kts | 51° |
| 2026-05-07 18:01 | 40.52497 | -74.27415 | 2784 ft | 180 kts | 30° |
| 2026-05-07 18:01 | 40.53533 | -74.26631 | 2732 ft | 169 kts | 28° |
| 2026-05-07 18:01 | 40.54545 | -74.25891 | 2613 ft | 164 kts | 26° |
| 2026-05-07 18:01 | 40.55559 | -74.25198 | 2562 ft | 165 kts | 25° |
| 2026-05-07 18:02 | 40.57607 | -74.23896 | 2243 ft | 163 kts | 23° |
| 2026-05-07 18:02 | 40.58288 | -74.23481 | 2083 ft | 162 kts | 23° |
| 2026-05-07 18:02 | 40.59311 | -74.22847 | 1898 ft | 163 kts | 24° |
| 2026-05-07 18:03 | 40.60327 | -74.22193 | 1730 ft | 163 kts | 24° |
| 2026-05-07 18:03 | 40.61331 | -74.21503 | 1515 ft | 162 kts | 25° |
| 2026-05-07 18:03 | 40.62344 | -74.20846 | 1314 ft | 162 kts | 24° |
| 2026-05-07 18:03 | 40.63682 | -74.19998 | 1010 ft | 161 kts | 24° |
| 2026-05-07 18:04 | 40.64361 | -74.19564 | 885 ft | 161 kts | 24° |
| 2026-05-07 18:04 | 40.65363 | -74.18929 | 632 ft | 160 kts | 23° |
| 2026-05-07 18:04 | 40.66358 | -74.18305 | 400 ft | 157 kts | 21° |
| 2026-05-07 18:04 | 40.67333 | -74.17686 | 219 ft | 157 kts | 22° |
| 2026-05-07 18:05 | 40.68294 | -74.17083 | 33 ft | 148 kts | 21° |
| 2026-05-07 18:05 | 40.69091 | -74.16581 | 30 ft | 108 kts | 26° |
| 2026-05-07 18:05 | 40.69559 | -74.16282 | 30 ft | 41 kts | 26° |
| 2026-05-07 18:05 | 40.69757 | -74.16158 | 28 ft | 28 kts | 26° |
| 2026-05-07 18:06 | 40.69921 | -74.16060 | 29 ft | 24 kts | 15° |
| 2026-05-07 18:06 | 40.70020 | -74.16126 | 29 ft | 6 kts | 302° |
| 2026-05-07 18:06 | 40.70021 | -74.16127 | 29 ft | 0 kts | 300° |
| 2026-05-07 18:07 | 40.70022 | -74.16130 | 29 ft | 2 kts | 300° |
| 2026-05-07 18:07 | 40.70036 | -74.16166 | 29 ft | 7 kts | 293° |
| 2026-05-07 18:07 | 40.70050 | -74.16257 | 28 ft | 12 kts | 276° |
| 2026-05-07 18:07 | 40.70060 | -74.16370 | 27 ft | 12 kts | 276° |
| 2026-05-07 18:08 | 40.70067 | -74.16476 | 28 ft | 13 kts | 274° |
| 2026-05-07 18:08 | 40.70074 | -74.16608 | 29 ft | 16 kts | 275° |
| 2026-05-07 18:08 | 40.70077 | -74.16712 | 29 ft | 5 kts | 255° |
| 2026-05-07 18:08 | 40.70065 | -74.16726 | 28 ft | 2 kts | 219° |
| 2026-05-07 18:09 | 40.70034 | -74.16744 | 29 ft | 9 kts | 197° |
| 2026-05-07 18:09 | 40.69943 | -74.16758 | 29 ft | 18 kts | 184° |
| 2026-05-07 18:09 | 40.69811 | -74.16782 | 29 ft | 20 kts | 199° |
| 2026-05-07 18:09 | 40.69690 | -74.16858 | 28 ft | 19 kts | 206° |
| 2026-05-07 18:10 | 40.69567 | -74.16936 | 29 ft | 20 kts | 206° |
| 2026-05-07 18:10 | 40.69438 | -74.17019 | 29 ft | 21 kts | 206° |
| 2026-05-07 18:10 | 40.69312 | -74.17101 | 29 ft | 20 kts | 206° |
| 2026-05-07 18:10 | 40.69194 | -74.17176 | 29 ft | 18 kts | 204° |
| 2026-05-07 18:11 | 40.69072 | -74.17251 | 29 ft | 21 kts | 205° |
| 2026-05-07 18:11 | 40.68946 | -74.17331 | 29 ft | 20 kts | 206° |
| 2026-05-07 18:11 | 40.68825 | -74.17408 | 28 ft | 19 kts | 206° |
| 2026-05-07 18:11 | 40.68711 | -74.17481 | 30 ft | 18 kts | 205° |
| 2026-05-07 18:12 | 40.68603 | -74.17549 | 30 ft | 17 kts | 206° |
| 2026-05-07 18:12 | 40.68496 | -74.17618 | 30 ft | 19 kts | 206° |
| 2026-05-07 18:12 | 40.68372 | -74.17698 | 30 ft | 20 kts | 206° |
| 2026-05-07 18:12 | 40.68255 | -74.17774 | 30 ft | 18 kts | 206° |
| 2026-05-07 18:13 | 40.68193 | -74.17821 | 30 ft | 1 kts | 231° |
| 2026-05-07 18:13 | 40.68189 | -74.17853 | 30 ft | 6 kts | 270° |
| 2026-05-07 18:13 | 40.68211 | -74.17932 | 29 ft | 12 kts | 294° |
| 2026-05-07 18:13 | 40.68191 | -74.18020 | 30 ft | 8 kts | 214° |
| 2026-05-07 18:14 | 40.68130 | -74.18044 | 30 ft | 11 kts | 197° |
| 2026-05-07 18:14 | 40.68066 | -74.18081 | 30 ft | 6 kts | 205° |
| 2026-05-07 18:14 | 40.68049 | -74.18091 | 30 ft | 0 kts | 205° |
| 2026-05-07 18:15 | 40.68045 | -74.18094 | 30 ft | 3 kts | 205° |
| 2026-05-07 18:15 | 40.68009 | -74.18117 | 30 ft | 10 kts | 205° |
| 2026-05-07 18:15 | 40.67924 | -74.18170 | 30 ft | 18 kts | 206° |
| 2026-05-07 18:15 | 40.67821 | -74.18236 | 30 ft | 13 kts | 206° |
| 2026-05-07 18:16 | 40.67770 | -74.18268 | 30 ft | 6 kts | 206° |
| 2026-05-07 18:16 | 40.67761 | -74.18276 | 30 ft | 0 kts | 217° |
| 2026-05-07 18:16 | 40.67752 | -74.18300 | 28 ft | 5 kts | 256° |
| 2026-05-07 18:16 | 40.67761 | -74.18356 | 30 ft | 6 kts | 285° |
| 2026-05-07 18:17 | 40.67772 | -74.18393 | 30 ft | 4 kts | 289° |
| 2026-05-07 18:17 | 40.67768 | -74.18415 | 30 ft | 4 kts | 245° |
| 2026-05-07 18:17 | 40.67745 | -74.18442 | 30 ft | 0 kts | 214° |
| 2026-05-07 18:17 | 40.67737 | -74.18449 | 30 ft | 1 kts | 212° |
| 2026-05-07 18:18 | 40.67728 | -74.18455 | 30 ft | 0 kts | 209° |
| 2026-05-07 18:18 | 40.67722 | -74.18460 | 30 ft | 1 kts | 208° |
| 2026-05-07 18:18 | 40.67720 | -74.18461 | 30 ft | 0 kts | 208° |